sensor_id;sensor_type;location;lat;lon;timestamp;temperature;humidity
837;DHT22;400;53.550;9.932;2023-12-04T00:02:29;2.10;1.00
837;DHT22;400;53.550;9.932;2023-12-04T00:04:56;2.20;1.00
837;DHT22;400;53.550;9.932;2023-12-04T00:07:23;2.20;1.00
837;DHT22;400;53.550;9.932;2023-12-04T00:09:52;2.10;1.00
837;DHT22;400;53.550;9.932;2023-12-04T00:12:19;2.10;1.00
837;DHT22;400;53.550;9.932;2023-12-04T00:14:46;2.10;1.00
837;DHT22;400;53.550;9.932;2023-12-04T00:17:13;2.00;1.00
837;DHT22;400;53.550;9.932;2023-12-04T00:19:42;1.90;1.00
837;DHT22;400;53.550;9.932;2023-12-04T00:22:08;1.90;1.00
837;DHT22;400;53.550;9.932;2023-12-04T00:24:35;1.90;1.00
837;DHT22;400;53.550;9.932;2023-12-04T00:27:03;1.90;1.00
837;DHT22;400;53.550;9.932;2023-12-04T00:29:30;1.80;1.00
837;DHT22;400;53.550;9.932;2023-12-04T00:31:57;1.80;1.00
837;DHT22;400;53.550;9.932;2023-12-04T00:34:24;1.80;1.00
837;DHT22;400;53.550;9.932;2023-12-04T00:36:52;1.80;1.00
837;DHT22;400;53.550;9.932;2023-12-04T00:39:19;1.80;1.00
837;DHT22;400;53.550;9.932;2023-12-04T00:41:46;1.80;1.00
837;DHT22;400;53.550;9.932;2023-12-04T00:44:13;1.90;1.00
837;DHT22;400;53.550;9.932;2023-12-04T00:46:40;1.80;1.00
837;DHT22;400;53.550;9.932;2023-12-04T00:49:07;1.90;1.00
837;DHT22;400;53.550;9.932;2023-12-04T00:51:37;1.80;1.00
837;DHT22;400;53.550;9.932;2023-12-04T00:54:06;1.80;1.00
837;DHT22;400;53.550;9.932;2023-12-04T00:56:32;1.80;1.00
837;DHT22;400;53.550;9.932;2023-12-04T00:58:59;1.70;1.00
837;DHT22;400;53.550;9.932;2023-12-04T01:01:26;1.70;1.00
837;DHT22;400;53.550;9.932;2023-12-04T01:03:54;1.70;1.00
837;DHT22;400;53.550;9.932;2023-12-04T01:06:21;1.70;1.00
837;DHT22;400;53.550;9.932;2023-12-04T01:08:49;1.70;1.00
837;DHT22;400;53.550;9.932;2023-12-04T01:11:17;1.70;1.00
837;DHT22;400;53.550;9.932;2023-12-04T01:13:45;1.60;1.00
837;DHT22;400;53.550;9.932;2023-12-04T01:16:12;1.60;1.00
837;DHT22;400;53.550;9.932;2023-12-04T01:18:40;1.60;1.00
837;DHT22;400;53.550;9.932;2023-12-04T01:21:07;1.60;1.00
837;DHT22;400;53.550;9.932;2023-12-04T01:23:34;1.50;1.00
837;DHT22;400;53.550;9.932;2023-12-04T01:26:01;1.60;1.00
837;DHT22;400;53.550;9.932;2023-12-04T01:28:30;1.60;1.00
837;DHT22;400;53.550;9.932;2023-12-04T01:30:57;1.60;1.00
837;DHT22;400;53.550;9.932;2023-12-04T01:33:23;1.50;1.00
837;DHT22;400;53.550;9.932;2023-12-04T01:35:51;1.50;1.00
837;DHT22;400;53.550;9.932;2023-12-04T01:38:18;1.40;1.00
837;DHT22;400;53.550;9.932;2023-12-04T01:40:45;1.30;1.00
837;DHT22;400;53.550;9.932;2023-12-04T01:43:12;1.30;1.00
837;DHT22;400;53.550;9.932;2023-12-04T01:45:40;1.30;1.00
837;DHT22;400;53.550;9.932;2023-12-04T01:48:08;1.30;1.00
837;DHT22;400;53.550;9.932;2023-12-04T01:50:35;1.30;1.00
837;DHT22;400;53.550;9.932;2023-12-04T01:53:02;1.30;1.00
837;DHT22;400;53.550;9.932;2023-12-04T01:55:30;1.30;1.00
837;DHT22;400;53.550;9.932;2023-12-04T01:58:00;1.30;1.00
837;DHT22;400;53.550;9.932;2023-12-04T02:00:29;1.30;1.00
837;DHT22;400;53.550;9.932;2023-12-04T02:02:59;1.20;1.00
837;DHT22;400;53.550;9.932;2023-12-04T02:05:27;1.20;1.00
837;DHT22;400;53.550;9.932;2023-12-04T02:07:55;1.20;1.00
837;DHT22;400;53.550;9.932;2023-12-04T02:10:22;1.20;1.00
837;DHT22;400;53.550;9.932;2023-12-04T02:12:49;1.20;1.00
837;DHT22;400;53.550;9.932;2023-12-04T02:15:16;1.10;1.00
837;DHT22;400;53.550;9.932;2023-12-04T02:17:44;1.10;1.00
837;DHT22;400;53.550;9.932;2023-12-04T02:20:14;1.10;1.00
837;DHT22;400;53.550;9.932;2023-12-04T02:22:41;1.10;1.00
837;DHT22;400;53.550;9.932;2023-12-04T02:25:10;1.10;1.00
837;DHT22;400;53.550;9.932;2023-12-04T02:27:40;1.10;1.00
837;DHT22;400;53.550;9.932;2023-12-04T02:30:11;1.00;1.00
837;DHT22;400;53.550;9.932;2023-12-04T02:32:42;1.10;1.00
837;DHT22;400;53.550;9.932;2023-12-04T02:35:11;1.00;1.00
837;DHT22;400;53.550;9.932;2023-12-04T02:37:39;1.00;1.00
837;DHT22;400;53.550;9.932;2023-12-04T02:40:08;1.00;1.00
837;DHT22;400;53.550;9.932;2023-12-04T02:42:36;1.00;1.00
837;DHT22;400;53.550;9.932;2023-12-04T02:45:04;0.90;1.00
837;DHT22;400;53.550;9.932;2023-12-04T02:47:31;0.90;1.00
837;DHT22;400;53.550;9.932;2023-12-04T02:49:58;0.90;1.00
837;DHT22;400;53.550;9.932;2023-12-04T02:52:25;1.00;1.00
837;DHT22;400;53.550;9.932;2023-12-04T02:54:52;1.10;1.00
837;DHT22;400;53.550;9.932;2023-12-04T02:57:19;1.00;1.00
837;DHT22;400;53.550;9.932;2023-12-04T02:59:48;1.00;1.00
837;DHT22;400;53.550;9.932;2023-12-04T03:02:15;1.00;1.00
837;DHT22;400;53.550;9.932;2023-12-04T03:04:42;1.00;1.00
837;DHT22;400;53.550;9.932;2023-12-04T03:07:09;1.00;1.00
837;DHT22;400;53.550;9.932;2023-12-04T03:09:36;1.00;1.00
837;DHT22;400;53.550;9.932;2023-12-04T03:12:04;1.00;1.00
837;DHT22;400;53.550;9.932;2023-12-04T03:14:31;0.90;1.00
837;DHT22;400;53.550;9.932;2023-12-04T03:17:00;0.90;1.00
837;DHT22;400;53.550;9.932;2023-12-04T03:19:27;0.90;1.00
837;DHT22;400;53.550;9.932;2023-12-04T03:21:55;0.80;1.00
837;DHT22;400;53.550;9.932;2023-12-04T03:24:22;0.90;1.00
837;DHT22;400;53.550;9.932;2023-12-04T03:26:49;0.90;1.00
837;DHT22;400;53.550;9.932;2023-12-04T03:29:16;0.90;1.00
837;DHT22;400;53.550;9.932;2023-12-04T03:31:43;0.80;1.00
837;DHT22;400;53.550;9.932;2023-12-04T03:34:11;0.80;1.00
837;DHT22;400;53.550;9.932;2023-12-04T03:36:38;0.80;1.00
837;DHT22;400;53.550;9.932;2023-12-04T03:39:05;0.80;1.00
837;DHT22;400;53.550;9.932;2023-12-04T03:41:32;0.80;1.00
837;DHT22;400;53.550;9.932;2023-12-04T03:43:59;0.80;1.00
837;DHT22;400;53.550;9.932;2023-12-04T03:46:26;0.80;1.00
837;DHT22;400;53.550;9.932;2023-12-04T03:48:53;0.80;1.00
837;DHT22;400;53.550;9.932;2023-12-04T03:51:22;0.80;1.00
837;DHT22;400;53.550;9.932;2023-12-04T03:53:49;0.80;1.00
837;DHT22;400;53.550;9.932;2023-12-04T03:56:16;0.90;1.00
837;DHT22;400;53.550;9.932;2023-12-04T03:58:43;0.90;1.00
837;DHT22;400;53.550;9.932;2023-12-04T04:01:10;0.90;1.00
837;DHT22;400;53.550;9.932;2023-12-04T04:03:37;0.90;1.00
837;DHT22;400;53.550;9.932;2023-12-04T04:06:04;0.90;1.00
837;DHT22;400;53.550;9.932;2023-12-04T04:08:33;0.90;1.00
837;DHT22;400;53.550;9.932;2023-12-04T04:11:00;0.90;1.00
837;DHT22;400;53.550;9.932;2023-12-04T04:13:30;0.90;1.00
837;DHT22;400;53.550;9.932;2023-12-04T04:15:59;0.80;1.00
837;DHT22;400;53.550;9.932;2023-12-04T04:18:27;0.80;1.00
837;DHT22;400;53.550;9.932;2023-12-04T04:20:55;0.80;1.00
837;DHT22;400;53.550;9.932;2023-12-04T04:23:22;0.70;1.00
837;DHT22;400;53.550;9.932;2023-12-04T04:25:50;0.80;1.00
837;DHT22;400;53.550;9.932;2023-12-04T04:28:17;0.70;1.00
837;DHT22;400;53.550;9.932;2023-12-04T04:30:44;0.80;1.00
837;DHT22;400;53.550;9.932;2023-12-04T04:33:11;0.90;1.00
837;DHT22;400;53.550;9.932;2023-12-04T04:35:38;0.90;1.00
837;DHT22;400;53.550;9.932;2023-12-04T04:38:06;0.90;1.00
837;DHT22;400;53.550;9.932;2023-12-04T04:40:33;1.00;1.00
837;DHT22;400;53.550;9.932;2023-12-04T04:43:01;1.00;1.00
837;DHT22;400;53.550;9.932;2023-12-04T04:45:29;1.00;1.00
837;DHT22;400;53.550;9.932;2023-12-04T04:47:56;1.00;1.00
837;DHT22;400;53.550;9.932;2023-12-04T04:50:23;1.00;1.00
837;DHT22;400;53.550;9.932;2023-12-04T04:52:50;1.00;1.00
837;DHT22;400;53.550;9.932;2023-12-04T04:55:17;0.90;1.00
837;DHT22;400;53.550;9.932;2023-12-04T04:57:47;0.90;1.00
837;DHT22;400;53.550;9.932;2023-12-04T05:00:16;0.90;1.00
837;DHT22;400;53.550;9.932;2023-12-04T05:02:43;0.90;1.00
837;DHT22;400;53.550;9.932;2023-12-04T05:05:11;0.90;1.00
837;DHT22;400;53.550;9.932;2023-12-04T05:07:39;1.00;1.00
837;DHT22;400;53.550;9.932;2023-12-04T05:10:06;0.90;1.00
837;DHT22;400;53.550;9.932;2023-12-04T05:12:33;1.00;1.00
837;DHT22;400;53.550;9.932;2023-12-04T05:15:00;1.00;1.00
837;DHT22;400;53.550;9.932;2023-12-04T05:17:29;1.00;1.00
837;DHT22;400;53.550;9.932;2023-12-04T05:19:57;1.00;1.00
837;DHT22;400;53.550;9.932;2023-12-04T05:22:24;1.00;1.00
837;DHT22;400;53.550;9.932;2023-12-04T05:24:51;1.00;1.00
837;DHT22;400;53.550;9.932;2023-12-04T05:27:18;1.00;1.00
837;DHT22;400;53.550;9.932;2023-12-04T05:29:45;1.10;1.00
837;DHT22;400;53.550;9.932;2023-12-04T05:32:12;1.00;1.00
837;DHT22;400;53.550;9.932;2023-12-04T05:34:41;1.10;1.00
837;DHT22;400;53.550;9.932;2023-12-04T05:37:08;1.10;1.00
837;DHT22;400;53.550;9.932;2023-12-04T05:39:35;1.10;1.00
837;DHT22;400;53.550;9.932;2023-12-04T05:42:02;1.10;1.00
837;DHT22;400;53.550;9.932;2023-12-04T05:44:31;1.10;1.00
837;DHT22;400;53.550;9.932;2023-12-04T05:47:01;1.10;1.00
837;DHT22;400;53.550;9.932;2023-12-04T05:49:31;1.20;1.00
837;DHT22;400;53.550;9.932;2023-12-04T05:52:04;1.20;1.00
837;DHT22;400;53.550;9.932;2023-12-04T05:54:33;1.10;1.00
837;DHT22;400;53.550;9.932;2023-12-04T05:57:01;1.20;1.00
837;DHT22;400;53.550;9.932;2023-12-04T05:59:28;1.20;1.00
837;DHT22;400;53.550;9.932;2023-12-04T06:01:55;1.20;1.00
837;DHT22;400;53.550;9.932;2023-12-04T06:04:22;1.20;1.00
837;DHT22;400;53.550;9.932;2023-12-04T06:06:49;1.20;1.00
837;DHT22;400;53.550;9.932;2023-12-04T06:09:18;1.30;1.00
837;DHT22;400;53.550;9.932;2023-12-04T06:11:45;1.20;1.00
837;DHT22;400;53.550;9.932;2023-12-04T06:14:12;1.20;1.00
837;DHT22;400;53.550;9.932;2023-12-04T06:16:39;1.20;1.00
837;DHT22;400;53.550;9.932;2023-12-04T06:19:06;1.20;1.00
837;DHT22;400;53.550;9.932;2023-12-04T06:21:33;1.20;1.00
837;DHT22;400;53.550;9.932;2023-12-04T06:24:00;1.10;1.00
837;DHT22;400;53.550;9.932;2023-12-04T06:26:35;1.10;1.00
837;DHT22;400;53.550;9.932;2023-12-04T06:29:10;1.00;1.00
837;DHT22;400;53.550;9.932;2023-12-04T06:31:40;1.10;1.00
837;DHT22;400;53.550;9.932;2023-12-04T06:34:07;1.00;1.00
837;DHT22;400;53.550;9.932;2023-12-04T06:36:39;1.00;1.00
837;DHT22;400;53.550;9.932;2023-12-04T06:39:10;1.00;1.00
837;DHT22;400;53.550;9.932;2023-12-04T06:41:40;1.00;1.00
837;DHT22;400;53.550;9.932;2023-12-04T06:44:11;1.00;1.00
837;DHT22;400;53.550;9.932;2023-12-04T06:46:47;1.00;1.00
837;DHT22;400;53.550;9.932;2023-12-04T06:49:19;1.00;1.00
837;DHT22;400;53.550;9.932;2023-12-04T06:51:47;0.90;1.00
837;DHT22;400;53.550;9.932;2023-12-04T06:54:14;1.00;1.00
837;DHT22;400;53.550;9.932;2023-12-04T06:56:45;1.00;1.00
837;DHT22;400;53.550;9.932;2023-12-04T06:59:12;1.00;1.00
837;DHT22;400;53.550;9.932;2023-12-04T07:01:40;1.00;1.00
837;DHT22;400;53.550;9.932;2023-12-04T07:04:10;0.90;1.00
837;DHT22;400;53.550;9.932;2023-12-04T07:06:37;0.80;1.00
837;DHT22;400;53.550;9.932;2023-12-04T07:09:05;0.90;1.00
837;DHT22;400;53.550;9.932;2023-12-04T07:11:33;0.90;1.00
837;DHT22;400;53.550;9.932;2023-12-04T07:14:01;0.90;1.00
837;DHT22;400;53.550;9.932;2023-12-04T07:16:28;0.90;1.00
837;DHT22;400;53.550;9.932;2023-12-04T07:18:58;1.00;1.00
837;DHT22;400;53.550;9.932;2023-12-04T07:21:33;1.00;1.00
837;DHT22;400;53.550;9.932;2023-12-04T07:24:05;0.90;1.00
837;DHT22;400;53.550;9.932;2023-12-04T07:26:35;0.90;1.00
837;DHT22;400;53.550;9.932;2023-12-04T07:29:03;0.90;1.00
837;DHT22;400;53.550;9.932;2023-12-04T07:31:30;1.00;1.00
837;DHT22;400;53.550;9.932;2023-12-04T07:34:00;0.90;1.00
837;DHT22;400;53.550;9.932;2023-12-04T07:36:32;0.90;1.00
837;DHT22;400;53.550;9.932;2023-12-04T07:39:02;0.90;1.00
837;DHT22;400;53.550;9.932;2023-12-04T07:41:34;0.90;1.00
837;DHT22;400;53.550;9.932;2023-12-04T07:44:04;0.90;1.00
837;DHT22;400;53.550;9.932;2023-12-04T07:46:34;0.90;1.00
837;DHT22;400;53.550;9.932;2023-12-04T07:49:02;0.90;1.00
837;DHT22;400;53.550;9.932;2023-12-04T07:51:29;0.90;1.00
837;DHT22;400;53.550;9.932;2023-12-04T07:53:56;0.90;1.00
837;DHT22;400;53.550;9.932;2023-12-04T07:56:23;1.00;1.00
837;DHT22;400;53.550;9.932;2023-12-04T07:58:51;1.00;1.00
837;DHT22;400;53.550;9.932;2023-12-04T08:01:19;1.00;1.00
837;DHT22;400;53.550;9.932;2023-12-04T08:03:46;1.00;1.00
837;DHT22;400;53.550;9.932;2023-12-04T08:06:13;1.00;1.00
837;DHT22;400;53.550;9.932;2023-12-04T08:08:43;1.10;1.00
837;DHT22;400;53.550;9.932;2023-12-04T08:11:15;1.10;1.00
837;DHT22;400;53.550;9.932;2023-12-04T08:13:48;1.10;1.00
837;DHT22;400;53.550;9.932;2023-12-04T08:16:20;1.00;1.00
837;DHT22;400;53.550;9.932;2023-12-04T08:18:48;1.00;1.00
837;DHT22;400;53.550;9.932;2023-12-04T08:21:17;1.10;1.00
837;DHT22;400;53.550;9.932;2023-12-04T08:23:44;1.00;1.00
837;DHT22;400;53.550;9.932;2023-12-04T08:26:11;1.00;1.00
837;DHT22;400;53.550;9.932;2023-12-04T08:28:38;1.10;1.00
837;DHT22;400;53.550;9.932;2023-12-04T08:31:07;1.10;1.00
837;DHT22;400;53.550;9.932;2023-12-04T08:33:36;1.20;1.00
837;DHT22;400;53.550;9.932;2023-12-04T08:36:04;1.20;1.00
837;DHT22;400;53.550;9.932;2023-12-04T08:38:33;1.20;1.00
837;DHT22;400;53.550;9.932;2023-12-04T08:41:04;1.20;1.00
837;DHT22;400;53.550;9.932;2023-12-04T08:43:40;1.30;1.00
837;DHT22;400;53.550;9.932;2023-12-04T08:46:12;1.30;1.00
837;DHT22;400;53.550;9.932;2023-12-04T08:48:48;1.30;1.00
837;DHT22;400;53.550;9.932;2023-12-04T08:51:19;1.30;1.00
837;DHT22;400;53.550;9.932;2023-12-04T08:53:49;1.30;1.00
837;DHT22;400;53.550;9.932;2023-12-04T08:56:18;1.30;1.00
837;DHT22;400;53.550;9.932;2023-12-04T08:58:45;1.30;1.00
837;DHT22;400;53.550;9.932;2023-12-04T09:01:12;1.20;1.00
837;DHT22;400;53.550;9.932;2023-12-04T09:03:45;1.30;1.00
837;DHT22;400;53.550;9.932;2023-12-04T09:06:16;1.30;1.00
837;DHT22;400;53.550;9.932;2023-12-04T09:08:49;1.30;1.00
837;DHT22;400;53.550;9.932;2023-12-04T09:11:18;1.30;1.00
837;DHT22;400;53.550;9.932;2023-12-04T09:13:45;1.30;1.00
837;DHT22;400;53.550;9.932;2023-12-04T09:16:12;1.30;1.00
837;DHT22;400;53.550;9.932;2023-12-04T09:18:39;1.40;1.00
837;DHT22;400;53.550;9.932;2023-12-04T09:21:11;1.30;1.00
837;DHT22;400;53.550;9.932;2023-12-04T09:23:40;1.30;1.00
837;DHT22;400;53.550;9.932;2023-12-04T09:26:07;1.30;1.00
837;DHT22;400;53.550;9.932;2023-12-04T09:28:35;1.30;1.00
837;DHT22;400;53.550;9.932;2023-12-04T09:31:03;1.30;1.00
837;DHT22;400;53.550;9.932;2023-12-04T09:33:30;1.40;1.00
837;DHT22;400;53.550;9.932;2023-12-04T09:35:57;1.40;1.00
837;DHT22;400;53.550;9.932;2023-12-04T09:38:26;1.40;1.00
837;DHT22;400;53.550;9.932;2023-12-04T09:40:58;1.40;1.00
837;DHT22;400;53.550;9.932;2023-12-04T09:43:28;1.40;1.00
837;DHT22;400;53.550;9.932;2023-12-04T09:45:56;1.40;1.00
837;DHT22;400;53.550;9.932;2023-12-04T09:48:24;1.40;1.00
837;DHT22;400;53.550;9.932;2023-12-04T09:50:52;1.40;1.00
837;DHT22;400;53.550;9.932;2023-12-04T09:53:20;1.50;1.00
837;DHT22;400;53.550;9.932;2023-12-04T09:55:52;1.40;1.00
837;DHT22;400;53.550;9.932;2023-12-04T09:58:26;1.40;1.00
837;DHT22;400;53.550;9.932;2023-12-04T10:00:55;1.50;1.00
837;DHT22;400;53.550;9.932;2023-12-04T10:03:25;1.50;1.00
837;DHT22;400;53.550;9.932;2023-12-04T10:05:53;1.50;1.00
837;DHT22;400;53.550;9.932;2023-12-04T10:08:20;1.50;1.00
837;DHT22;400;53.550;9.932;2023-12-04T10:10:50;1.60;1.00
837;DHT22;400;53.550;9.932;2023-12-04T10:13:18;1.60;1.00
837;DHT22;400;53.550;9.932;2023-12-04T10:15:49;1.60;1.00
837;DHT22;400;53.550;9.932;2023-12-04T10:18:27;1.60;1.00
837;DHT22;400;53.550;9.932;2023-12-04T10:20:57;1.60;1.00
837;DHT22;400;53.550;9.932;2023-12-04T10:23:37;1.70;1.00
837;DHT22;400;53.550;9.932;2023-12-04T10:26:06;1.70;1.00
837;DHT22;400;53.550;9.932;2023-12-04T10:28:34;1.80;1.00
837;DHT22;400;53.550;9.932;2023-12-04T10:31:04;1.70;1.00
837;DHT22;400;53.550;9.932;2023-12-04T10:33:32;1.70;1.00
837;DHT22;400;53.550;9.932;2023-12-04T10:36:01;1.70;1.00
837;DHT22;400;53.550;9.932;2023-12-04T10:38:33;1.70;1.00
837;DHT22;400;53.550;9.932;2023-12-04T10:41:13;1.70;1.00
837;DHT22;400;53.550;9.932;2023-12-04T10:43:46;1.80;1.00
837;DHT22;400;53.550;9.932;2023-12-04T10:46:15;1.70;1.00
837;DHT22;400;53.550;9.932;2023-12-04T10:48:45;1.70;1.00
837;DHT22;400;53.550;9.932;2023-12-04T10:51:12;1.80;1.00
837;DHT22;400;53.550;9.932;2023-12-04T10:53:39;1.80;1.00
837;DHT22;400;53.550;9.932;2023-12-04T10:56:14;1.80;1.00
837;DHT22;400;53.550;9.932;2023-12-04T10:58:47;1.80;1.00
837;DHT22;400;53.550;9.932;2023-12-04T11:01:22;1.80;1.00
837;DHT22;400;53.550;9.932;2023-12-04T11:03:52;1.90;1.00
837;DHT22;400;53.550;9.932;2023-12-04T11:06:22;1.90;1.00
837;DHT22;400;53.550;9.932;2023-12-04T11:08:53;1.90;1.00
837;DHT22;400;53.550;9.932;2023-12-04T11:11:27;2.00;1.00
837;DHT22;400;53.550;9.932;2023-12-04T11:13:58;2.00;1.00
837;DHT22;400;53.550;9.932;2023-12-04T11:16:31;2.00;1.00
837;DHT22;400;53.550;9.932;2023-12-04T11:19:09;1.90;1.00
837;DHT22;400;53.550;9.932;2023-12-04T11:21:44;2.00;1.00
837;DHT22;400;53.550;9.932;2023-12-04T11:24:12;2.00;1.00
837;DHT22;400;53.550;9.932;2023-12-04T11:26:41;1.90;1.00
837;DHT22;400;53.550;9.932;2023-12-04T11:29:09;2.00;1.00
837;DHT22;400;53.550;9.932;2023-12-04T11:31:39;2.10;1.00
837;DHT22;400;53.550;9.932;2023-12-04T11:34:08;2.10;1.00
837;DHT22;400;53.550;9.932;2023-12-04T11:36:36;2.20;1.00
837;DHT22;400;53.550;9.932;2023-12-04T11:39:09;2.20;1.00
837;DHT22;400;53.550;9.932;2023-12-04T11:41:41;2.10;1.00
837;DHT22;400;53.550;9.932;2023-12-04T11:44:14;2.10;1.00
837;DHT22;400;53.550;9.932;2023-12-04T11:46:55;2.10;1.00
837;DHT22;400;53.550;9.932;2023-12-04T11:49:30;2.10;1.00
837;DHT22;400;53.550;9.932;2023-12-04T11:51:57;2.10;1.00
837;DHT22;400;53.550;9.932;2023-12-04T11:54:26;2.20;1.00
837;DHT22;400;53.550;9.932;2023-12-04T11:56:59;2.20;1.00
837;DHT22;400;53.550;9.932;2023-12-04T11:59:27;2.20;1.00
837;DHT22;400;53.550;9.932;2023-12-04T12:01:57;2.10;1.00
837;DHT22;400;53.550;9.932;2023-12-04T12:04:28;2.10;1.00
837;DHT22;400;53.550;9.932;2023-12-04T12:06:59;2.10;1.00
837;DHT22;400;53.550;9.932;2023-12-04T12:09:32;2.20;1.00
837;DHT22;400;53.550;9.932;2023-12-04T12:12:05;2.10;1.00
837;DHT22;400;53.550;9.932;2023-12-04T12:14:33;2.10;1.00
837;DHT22;400;53.550;9.932;2023-12-04T12:17:01;2.10;1.00
837;DHT22;400;53.550;9.932;2023-12-04T12:19:28;2.10;1.00
837;DHT22;400;53.550;9.932;2023-12-04T12:21:55;2.00;1.00
837;DHT22;400;53.550;9.932;2023-12-04T12:24:23;2.00;1.00
837;DHT22;400;53.550;9.932;2023-12-04T12:26:53;2.00;1.00
837;DHT22;400;53.550;9.932;2023-12-04T12:29:22;2.10;1.00
837;DHT22;400;53.550;9.932;2023-12-04T12:31:51;2.10;1.00
837;DHT22;400;53.550;9.932;2023-12-04T12:34:22;2.10;1.00
837;DHT22;400;53.550;9.932;2023-12-04T12:36:53;2.20;1.00
837;DHT22;400;53.550;9.932;2023-12-04T12:39:23;2.20;1.00
837;DHT22;400;53.550;9.932;2023-12-04T12:41:53;2.30;1.00
837;DHT22;400;53.550;9.932;2023-12-04T12:44:26;2.20;1.00
837;DHT22;400;53.550;9.932;2023-12-04T12:46:58;2.20;1.00
837;DHT22;400;53.550;9.932;2023-12-04T12:49:31;2.20;1.00
837;DHT22;400;53.550;9.932;2023-12-04T12:52:02;2.30;1.00
837;DHT22;400;53.550;9.932;2023-12-04T12:54:30;2.30;1.00
837;DHT22;400;53.550;9.932;2023-12-04T12:56:59;2.30;1.00
837;DHT22;400;53.550;9.932;2023-12-04T12:59:28;2.30;1.00
837;DHT22;400;53.550;9.932;2023-12-04T13:01:55;2.20;1.00
837;DHT22;400;53.550;9.932;2023-12-04T13:04:25;2.30;1.00
837;DHT22;400;53.550;9.932;2023-12-04T13:06:55;2.30;1.00
837;DHT22;400;53.550;9.932;2023-12-04T13:09:23;2.30;1.00
837;DHT22;400;53.550;9.932;2023-12-04T13:11:51;2.40;1.00
837;DHT22;400;53.550;9.932;2023-12-04T13:14:22;2.30;1.00
837;DHT22;400;53.550;9.932;2023-12-04T13:16:54;2.30;1.00
837;DHT22;400;53.550;9.932;2023-12-04T13:19:22;2.30;1.00
837;DHT22;400;53.550;9.932;2023-12-04T13:21:49;2.30;1.00
837;DHT22;400;53.550;9.932;2023-12-04T13:24:18;2.30;1.00
837;DHT22;400;53.550;9.932;2023-12-04T13:26:46;2.30;1.00
837;DHT22;400;53.550;9.932;2023-12-04T13:29:13;2.30;1.00
837;DHT22;400;53.550;9.932;2023-12-04T13:31:43;2.40;1.00
837;DHT22;400;53.550;9.932;2023-12-04T13:34:13;2.40;1.00
837;DHT22;400;53.550;9.932;2023-12-04T13:36:41;2.50;1.00
837;DHT22;400;53.550;9.932;2023-12-04T13:39:09;2.50;1.00
837;DHT22;400;53.550;9.932;2023-12-04T13:41:44;2.60;1.00
837;DHT22;400;53.550;9.932;2023-12-04T13:44:30;2.60;1.00
837;DHT22;400;53.550;9.932;2023-12-04T13:47:02;2.60;1.00
837;DHT22;400;53.550;9.932;2023-12-04T13:49:35;2.60;1.00
837;DHT22;400;53.550;9.932;2023-12-04T13:52:04;2.60;1.00
837;DHT22;400;53.550;9.932;2023-12-04T13:54:37;2.50;1.00
837;DHT22;400;53.550;9.932;2023-12-04T13:57:16;2.50;1.00
837;DHT22;400;53.550;9.932;2023-12-04T13:59:51;2.60;1.00
837;DHT22;400;53.550;9.932;2023-12-04T14:02:26;2.60;1.00
837;DHT22;400;53.550;9.932;2023-12-04T14:04:58;2.50;1.00
837;DHT22;400;53.550;9.932;2023-12-04T14:07:27;2.60;1.00
837;DHT22;400;53.550;9.932;2023-12-04T14:09:58;2.50;1.00
837;DHT22;400;53.550;9.932;2023-12-04T14:12:27;2.60;1.00
837;DHT22;400;53.550;9.932;2023-12-04T14:14:59;2.50;1.00
837;DHT22;400;53.550;9.932;2023-12-04T14:17:28;2.60;1.00
837;DHT22;400;53.550;9.932;2023-12-04T14:19:58;2.60;1.00
837;DHT22;400;53.550;9.932;2023-12-04T14:22:24;2.70;1.00
837;DHT22;400;53.550;9.932;2023-12-04T14:24:54;2.70;1.00
837;DHT22;400;53.550;9.932;2023-12-04T14:27:37;2.70;1.00
837;DHT22;400;53.550;9.932;2023-12-04T14:30:08;2.70;1.00
837;DHT22;400;53.550;9.932;2023-12-04T14:32:39;2.70;1.00
837;DHT22;400;53.550;9.932;2023-12-04T14:35:14;2.70;1.00
837;DHT22;400;53.550;9.932;2023-12-04T14:37:42;2.70;1.00
837;DHT22;400;53.550;9.932;2023-12-04T14:40:13;2.70;1.00
837;DHT22;400;53.550;9.932;2023-12-04T14:42:43;2.70;1.00
837;DHT22;400;53.550;9.932;2023-12-04T14:45:11;2.70;1.00
837;DHT22;400;53.550;9.932;2023-12-04T14:47:41;2.70;1.00
837;DHT22;400;53.550;9.932;2023-12-04T14:50:13;2.70;1.00
837;DHT22;400;53.550;9.932;2023-12-04T14:52:50;2.70;1.00
837;DHT22;400;53.550;9.932;2023-12-04T14:55:23;2.70;1.00
837;DHT22;400;53.550;9.932;2023-12-04T14:58:04;2.70;1.00
837;DHT22;400;53.550;9.932;2023-12-04T15:00:50;2.70;1.00
837;DHT22;400;53.550;9.932;2023-12-04T15:03:36;2.70;1.00
837;DHT22;400;53.550;9.932;2023-12-04T15:06:20;2.60;1.00
837;DHT22;400;53.550;9.932;2023-12-04T15:09:11;2.70;1.00
837;DHT22;400;53.550;9.932;2023-12-04T15:11:57;2.70;1.00
837;DHT22;400;53.550;9.932;2023-12-04T15:14:47;2.70;1.00
837;DHT22;400;53.550;9.932;2023-12-04T15:17:21;2.70;1.00
837;DHT22;400;53.550;9.932;2023-12-04T15:19:58;2.60;1.00
837;DHT22;400;53.550;9.932;2023-12-04T15:22:58;2.60;1.00
837;DHT22;400;53.550;9.932;2023-12-04T15:25:27;2.60;1.00
837;DHT22;400;53.550;9.932;2023-12-04T15:27:58;2.60;1.00
837;DHT22;400;53.550;9.932;2023-12-04T15:30:34;2.60;1.00
837;DHT22;400;53.550;9.932;2023-12-04T15:33:02;2.60;1.00
837;DHT22;400;53.550;9.932;2023-12-04T15:35:33;2.50;1.00
837;DHT22;400;53.550;9.932;2023-12-04T15:38:06;2.50;1.00
837;DHT22;400;53.550;9.932;2023-12-04T15:40:36;2.50;1.00
837;DHT22;400;53.550;9.932;2023-12-04T15:43:05;2.60;1.00
837;DHT22;400;53.550;9.932;2023-12-04T15:45:37;2.60;1.00
837;DHT22;400;53.550;9.932;2023-12-04T15:48:12;2.70;1.00
837;DHT22;400;53.550;9.932;2023-12-04T15:50:44;2.70;1.00
837;DHT22;400;53.550;9.932;2023-12-04T15:53:15;2.60;1.00
837;DHT22;400;53.550;9.932;2023-12-04T15:55:42;2.60;1.00
837;DHT22;400;53.550;9.932;2023-12-04T15:58:13;2.60;1.00
837;DHT22;400;53.550;9.932;2023-12-04T16:00:40;2.50;1.00
837;DHT22;400;53.550;9.932;2023-12-04T16:03:07;2.50;1.00
837;DHT22;400;53.550;9.932;2023-12-04T16:05:39;2.50;1.00
837;DHT22;400;53.550;9.932;2023-12-04T16:08:09;2.50;1.00
837;DHT22;400;53.550;9.932;2023-12-04T16:10:42;2.40;1.00
837;DHT22;400;53.550;9.932;2023-12-04T16:13:15;2.40;1.00
837;DHT22;400;53.550;9.932;2023-12-04T16:15:44;2.40;1.00
837;DHT22;400;53.550;9.932;2023-12-04T16:18:14;2.40;1.00
837;DHT22;400;53.550;9.932;2023-12-04T16:20:45;2.50;1.00
837;DHT22;400;53.550;9.932;2023-12-04T16:23:14;2.50;1.00
837;DHT22;400;53.550;9.932;2023-12-04T16:25:50;2.50;1.00
837;DHT22;400;53.550;9.932;2023-12-04T16:28:22;2.40;1.00
837;DHT22;400;53.550;9.932;2023-12-04T16:30:55;2.40;1.00
837;DHT22;400;53.550;9.932;2023-12-04T16:33:24;2.20;1.00
837;DHT22;400;53.550;9.932;2023-12-04T16:35:51;2.30;1.00
837;DHT22;400;53.550;9.932;2023-12-04T16:38:18;2.30;1.00
837;DHT22;400;53.550;9.932;2023-12-04T16:40:49;2.30;1.00
837;DHT22;400;53.550;9.932;2023-12-04T16:43:24;2.30;1.00
837;DHT22;400;53.550;9.932;2023-12-04T16:45:58;2.30;1.00
837;DHT22;400;53.550;9.932;2023-12-04T16:48:27;2.30;1.00
837;DHT22;400;53.550;9.932;2023-12-04T16:50:57;2.20;1.00
837;DHT22;400;53.550;9.932;2023-12-04T16:53:25;2.20;1.00
837;DHT22;400;53.550;9.932;2023-12-04T16:55:54;2.20;1.00
837;DHT22;400;53.550;9.932;2023-12-04T16:58:24;2.20;1.00
837;DHT22;400;53.550;9.932;2023-12-04T17:00:54;2.30;1.00
837;DHT22;400;53.550;9.932;2023-12-04T17:03:21;2.30;1.00
837;DHT22;400;53.550;9.932;2023-12-04T17:05:49;2.20;1.00
837;DHT22;400;53.550;9.932;2023-12-04T17:08:16;2.20;1.00
837;DHT22;400;53.550;9.932;2023-12-04T17:10:43;2.20;1.00
837;DHT22;400;53.550;9.932;2023-12-04T17:13:11;2.20;1.00
837;DHT22;400;53.550;9.932;2023-12-04T17:15:38;2.10;1.00
837;DHT22;400;53.550;9.932;2023-12-04T17:18:15;2.10;1.00
837;DHT22;400;53.550;9.932;2023-12-04T17:20:45;2.10;1.00
837;DHT22;400;53.550;9.932;2023-12-04T17:23:16;2.10;1.00
837;DHT22;400;53.550;9.932;2023-12-04T17:25:46;2.10;1.00